sensor_id;sensor_type;location;lat;lon;timestamp;P1;P2;P0
73973;PMS5003;62336;-26.094;27.994;2022-11-20T00:01:57;8;8;
73973;PMS5003;62336;-26.094;27.994;2022-11-20T00:04:23;12;10;
73973;PMS5003;62336;-26.094;27.994;2022-11-20T00:06:48;10;8;
73973;PMS5003;62336;-26.094;27.994;2022-11-20T00:09:14;13;9;
73973;PMS5003;62336;-26.094;27.994;2022-11-20T00:11:39;13;12;
73973;PMS5003;62336;-26.094;27.994;2022-11-20T00:14:04;12;11;
73973;PMS5003;62336;-26.094;27.994;2022-11-20T00:16:30;12;10;
73973;PMS5003;62336;-26.094;27.994;2022-11-20T01:51:32;4;4;
73973;PMS5003;62336;-26.094;27.994;2022-11-20T01:53:59;5;5;
73973;PMS5003;62336;-26.094;27.994;2022-11-20T01:56:28;5;5;
73973;PMS5003;62336;-26.094;27.994;2022-11-20T01:58:48;4;4;
73973;PMS5003;62336;-26.094;27.994;2022-11-20T02:01:13;6;5;
73973;PMS5003;62336;-26.094;27.994;2022-11-20T02:03:38;4;4;
73973;PMS5003;62336;-26.094;27.994;2022-11-20T02:06:06;6;5;
73973;PMS5003;62336;-26.094;27.994;2022-11-20T02:08:28;8;7;
73973;PMS5003;62336;-26.094;27.994;2022-11-20T02:10:56;7;6;
73973;PMS5003;62336;-26.094;27.994;2022-11-20T02:13:19;6;6;
73973;PMS5003;62336;-26.094;27.994;2022-11-20T02:15:44;6;6;
73973;PMS5003;62336;-26.094;27.994;2022-11-20T02:18:09;7;6;
73973;PMS5003;62336;-26.094;27.994;2022-11-20T02:20:34;5;4;
73973;PMS5003;62336;-26.094;27.994;2022-11-20T02:22:59;7;5;
73973;PMS5003;62336;-26.094;27.994;2022-11-20T02:25:41;5;5;
73973;PMS5003;62336;-26.094;27.994;2022-11-20T02:28:05;6;6;
73973;PMS5003;62336;-26.094;27.994;2022-11-20T02:30:30;6;6;
73973;PMS5003;62336;-26.094;27.994;2022-11-20T02:32:57;7;7;
73973;PMS5003;62336;-26.094;27.994;2022-11-20T02:37:46;5;5;
73973;PMS5003;62336;-26.094;27.994;2022-11-20T02:40:11;7;6;
73973;PMS5003;62336;-26.094;27.994;2022-11-20T02:42:36;6;5;
73973;PMS5003;62336;-26.094;27.994;2022-11-20T02:45:01;6;6;
73973;PMS5003;62336;-26.094;27.994;2022-11-20T02:47:27;6;5;
73973;PMS5003;62336;-26.094;27.994;2022-11-20T02:49:51;7;7;
73973;PMS5003;62336;-26.094;27.994;2022-11-20T02:52:17;6;6;
73973;PMS5003;62336;-26.094;27.994;2022-11-20T02:54:42;7;7;
73973;PMS5003;62336;-26.094;27.994;2022-11-20T02:57:06;4;4;
73973;PMS5003;62336;-26.094;27.994;2022-11-20T02:59:31;8;7;
73973;PMS5003;62336;-26.094;27.994;2022-11-20T03:01:56;8;7;
73973;PMS5003;62336;-26.094;27.994;2022-11-20T03:04:21;9;7;
73973;PMS5003;62336;-26.094;27.994;2022-11-20T03:06:46;11;10;
73973;PMS5003;62336;-26.094;27.994;2022-11-20T03:09:12;7;7;
73973;PMS5003;62336;-26.094;27.994;2022-11-20T03:11:37;8;7;
73973;PMS5003;62336;-26.094;27.994;2022-11-20T03:14:03;6;6;
73973;PMS5003;62336;-26.094;27.994;2022-11-20T03:16:30;9;8;
73973;PMS5003;62336;-26.094;27.994;2022-11-20T03:18:54;7;7;
73973;PMS5003;62336;-26.094;27.994;2022-11-20T03:21:20;13;12;
73973;PMS5003;62336;-26.094;27.994;2022-11-20T03:23:45;10;9;
73973;PMS5003;62336;-26.094;27.994;2022-11-20T03:26:12;11;10;
73973;PMS5003;62336;-26.094;27.994;2022-11-20T03:28:36;10;10;
73973;PMS5003;62336;-26.094;27.994;2022-11-20T03:31:04;12;12;
73973;PMS5003;62336;-26.094;27.994;2022-11-20T03:33:28;12;11;
73973;PMS5003;62336;-26.094;27.994;2022-11-20T03:35:51;12;12;
73973;PMS5003;62336;-26.094;27.994;2022-11-20T03:38:17;12;11;
73973;PMS5003;62336;-26.094;27.994;2022-11-20T03:40:41;18;16;
73973;PMS5003;62336;-26.094;27.994;2022-11-20T03:43:09;14;13;
73973;PMS5003;62336;-26.094;27.994;2022-11-20T03:45:33;12;12;
73973;PMS5003;62336;-26.094;27.994;2022-11-20T03:47:58;15;14;
73973;PMS5003;62336;-26.094;27.994;2022-11-20T03:50:24;15;14;
73973;PMS5003;62336;-26.094;27.994;2022-11-20T03:52:49;12;10;
73973;PMS5003;62336;-26.094;27.994;2022-11-20T03:55:14;11;11;
73973;PMS5003;62336;-26.094;27.994;2022-11-20T03:57:39;11;8;
73973;PMS5003;62336;-26.094;27.994;2022-11-20T04:00:04;7;7;
73973;PMS5003;62336;-26.094;27.994;2022-11-20T04:02:29;6;6;
73973;PMS5003;62336;-26.094;27.994;2022-11-20T04:04:54;6;6;
73973;PMS5003;62336;-26.094;27.994;2022-11-20T04:07:20;6;6;
73973;PMS5003;62336;-26.094;27.994;2022-11-20T04:09:45;5;5;
73973;PMS5003;62336;-26.094;27.994;2022-11-20T04:12:10;4;4;
73973;PMS5003;62336;-26.094;27.994;2022-11-20T04:14:35;6;5;
73973;PMS5003;62336;-26.094;27.994;2022-11-20T04:17:00;5;4;
73973;PMS5003;62336;-26.094;27.994;2022-11-20T04:19:25;3;3;
73973;PMS5003;62336;-26.094;27.994;2022-11-20T04:21:50;2;2;
73973;PMS5003;62336;-26.094;27.994;2022-11-20T04:24:15;7;5;
73973;PMS5003;62336;-26.094;27.994;2022-11-20T04:26:40;5;5;
73973;PMS5003;62336;-26.094;27.994;2022-11-20T04:29:05;6;6;
73973;PMS5003;62336;-26.094;27.994;2022-11-20T04:31:31;12;12;
73973;PMS5003;62336;-26.094;27.994;2022-11-20T04:33:59;10;9;
73973;PMS5003;62336;-26.094;27.994;2022-11-20T04:36:22;10;10;
73973;PMS5003;62336;-26.094;27.994;2022-11-20T04:38:49;10;9;
73973;PMS5003;62336;-26.094;27.994;2022-11-20T04:41:13;9;9;
73973;PMS5003;62336;-26.094;27.994;2022-11-20T04:43:36;11;10;
73973;PMS5003;62336;-26.094;27.994;2022-11-20T04:46:02;6;5;
73973;PMS5003;62336;-26.094;27.994;2022-11-20T04:48:28;6;6;
73973;PMS5003;62336;-26.094;27.994;2022-11-20T04:50:53;4;4;
73973;PMS5003;62336;-26.094;27.994;2022-11-20T04:53:18;4;4;
73973;PMS5003;62336;-26.094;27.994;2022-11-20T04:55:43;2;2;
73973;PMS5003;62336;-26.094;27.994;2022-11-20T04:58:10;3;3;
73973;PMS5003;62336;-26.094;27.994;2022-11-20T05:00:34;3;2;
73973;PMS5003;62336;-26.094;27.994;2022-11-20T05:02:59;1;1;
73973;PMS5003;62336;-26.094;27.994;2022-11-20T05:05:25;2;2;
73973;PMS5003;62336;-26.094;27.994;2022-11-20T05:07:49;1;1;
73973;PMS5003;62336;-26.094;27.994;2022-11-20T05:10:14;2;2;
73973;PMS5003;62336;-26.094;27.994;2022-11-20T05:12:40;2;2;
73973;PMS5003;62336;-26.094;27.994;2022-11-20T05:15:05;1;1;
73973;PMS5003;62336;-26.094;27.994;2022-11-20T05:17:30;1;1;
73973;PMS5003;62336;-26.094;27.994;2022-11-20T05:19:55;3;2;
73973;PMS5003;62336;-26.094;27.994;2022-11-20T05:22:20;2;1;
73973;PMS5003;62336;-26.094;27.994;2022-11-20T05:24:45;1;1;
73973;PMS5003;62336;-26.094;27.994;2022-11-20T05:27:10;2;2;
73973;PMS5003;62336;-26.094;27.994;2022-11-20T05:29:35;2;2;
73973;PMS5003;62336;-26.094;27.994;2022-11-20T05:32:00;2;1;
73973;PMS5003;62336;-26.094;27.994;2022-11-20T05:34:25;2;2;
73973;PMS5003;62336;-26.094;27.994;2022-11-20T05:36:50;0;0;
73973;PMS5003;62336;-26.094;27.994;2022-11-20T05:39:15;1;1;
73973;PMS5003;62336;-26.094;27.994;2022-11-20T05:41:41;2;1;
73973;PMS5003;62336;-26.094;27.994;2022-11-20T05:44:06;1;1;
73973;PMS5003;62336;-26.094;27.994;2022-11-20T05:46:31;2;2;
73973;PMS5003;62336;-26.094;27.994;2022-11-20T05:48:56;1;1;
73973;PMS5003;62336;-26.094;27.994;2022-11-20T05:51:21;1;1;
73973;PMS5003;62336;-26.094;27.994;2022-11-20T05:53:46;3;2;
73973;PMS5003;62336;-26.094;27.994;2022-11-20T05:56:12;2;2;
73973;PMS5003;62336;-26.094;27.994;2022-11-20T05:58:36;7;4;
73973;PMS5003;62336;-26.094;27.994;2022-11-20T06:01:05;3;3;
73973;PMS5003;62336;-26.094;27.994;2022-11-20T06:03:26;3;2;
73973;PMS5003;62336;-26.094;27.994;2022-11-20T06:05:51;1;1;
73973;PMS5003;62336;-26.094;27.994;2022-11-20T06:08:17;0;0;
73973;PMS5003;62336;-26.094;27.994;2022-11-20T06:10:43;0;0;
73973;PMS5003;62336;-26.094;27.994;2022-11-20T06:13:09;1;1;
73973;PMS5003;62336;-26.094;27.994;2022-11-20T06:15:35;1;1;
73973;PMS5003;62336;-26.094;27.994;2022-11-20T06:18:00;1;1;
73973;PMS5003;62336;-26.094;27.994;2022-11-20T06:20:25;2;1;
73973;PMS5003;62336;-26.094;27.994;2022-11-20T06:22:51;0;0;
73973;PMS5003;62336;-26.094;27.994;2022-11-20T06:25:17;0;0;
73973;PMS5003;62336;-26.094;27.994;2022-11-20T06:27:42;2;1;
73973;PMS5003;62336;-26.094;27.994;2022-11-20T06:30:09;2;2;
73973;PMS5003;62336;-26.094;27.994;2022-11-20T06:32:36;2;2;
73973;PMS5003;62336;-26.094;27.994;2022-11-20T06:35:00;4;4;
73973;PMS5003;62336;-26.094;27.994;2022-11-20T06:37:25;2;2;
73973;PMS5003;62336;-26.094;27.994;2022-11-20T06:39:51;3;3;
73973;PMS5003;62336;-26.094;27.994;2022-11-20T06:42:17;3;3;
73973;PMS5003;62336;-26.094;27.994;2022-11-20T06:44:42;2;2;
73973;PMS5003;62336;-26.094;27.994;2022-11-20T06:47:08;1;1;
73973;PMS5003;62336;-26.094;27.994;2022-11-20T06:49:34;3;2;
73973;PMS5003;62336;-26.094;27.994;2022-11-20T06:52:00;1;0;
73973;PMS5003;62336;-26.094;27.994;2022-11-20T06:54:25;3;2;
73973;PMS5003;62336;-26.094;27.994;2022-11-20T06:56:50;0;0;
73973;PMS5003;62336;-26.094;27.994;2022-11-20T06:59:16;2;2;
73973;PMS5003;62336;-26.094;27.994;2022-11-20T07:01:41;3;3;
73973;PMS5003;62336;-26.094;27.994;2022-11-20T07:04:07;2;2;
73973;PMS5003;62336;-26.094;27.994;2022-11-20T07:06:32;3;3;
73973;PMS5003;62336;-26.094;27.994;2022-11-20T07:08:57;2;2;
73973;PMS5003;62336;-26.094;27.994;2022-11-20T07:11:23;3;3;
73973;PMS5003;62336;-26.094;27.994;2022-11-20T07:13:49;3;3;
73973;PMS5003;62336;-26.094;27.994;2022-11-20T07:16:15;4;3;
73973;PMS5003;62336;-26.094;27.994;2022-11-20T07:18:39;4;4;
73973;PMS5003;62336;-26.094;27.994;2022-11-20T07:21:06;3;2;
73973;PMS5003;62336;-26.094;27.994;2022-11-20T07:23:31;4;4;
73973;PMS5003;62336;-26.094;27.994;2022-11-20T07:25:57;2;2;
73973;PMS5003;62336;-26.094;27.994;2022-11-20T07:28:23;2;2;
73973;PMS5003;62336;-26.094;27.994;2022-11-20T07:30:50;2;2;
73973;PMS5003;62336;-26.094;27.994;2022-11-20T07:33:15;1;1;
73973;PMS5003;62336;-26.094;27.994;2022-11-20T07:35:40;2;2;
73973;PMS5003;62336;-26.094;27.994;2022-11-20T07:38:06;1;1;
73973;PMS5003;62336;-26.094;27.994;2022-11-20T07:40:31;1;1;
73973;PMS5003;62336;-26.094;27.994;2022-11-20T07:42:57;1;1;
73973;PMS5003;62336;-26.094;27.994;2022-11-20T07:45:23;2;2;
73973;PMS5003;62336;-26.094;27.994;2022-11-20T07:47:49;2;2;
73973;PMS5003;62336;-26.094;27.994;2022-11-20T07:50:14;0;0;
73973;PMS5003;62336;-26.094;27.994;2022-11-20T07:52:39;1;1;
73973;PMS5003;62336;-26.094;27.994;2022-11-20T07:55:04;0;0;
73973;PMS5003;62336;-26.094;27.994;2022-11-20T07:57:29;3;3;
73973;PMS5003;62336;-26.094;27.994;2022-11-20T07:59:55;1;1;
73973;PMS5003;62336;-26.094;27.994;2022-11-20T08:02:20;1;1;
73973;PMS5003;62336;-26.094;27.994;2022-11-20T08:04:45;0;0;
73973;PMS5003;62336;-26.094;27.994;2022-11-20T08:07:11;0;0;
73973;PMS5003;62336;-26.094;27.994;2022-11-20T08:09:36;1;1;
73973;PMS5003;62336;-26.094;27.994;2022-11-20T08:12:01;1;1;
73973;PMS5003;62336;-26.094;27.994;2022-11-20T08:14:26;1;1;
73973;PMS5003;62336;-26.094;27.994;2022-11-20T08:16:52;1;1;
73973;PMS5003;62336;-26.094;27.994;2022-11-20T08:19:17;2;1;
73973;PMS5003;62336;-26.094;27.994;2022-11-20T08:21:42;0;0;
73973;PMS5003;62336;-26.094;27.994;2022-11-20T08:24:07;1;1;
73973;PMS5003;62336;-26.094;27.994;2022-11-20T08:26:33;0;0;
73973;PMS5003;62336;-26.094;27.994;2022-11-20T08:28:59;1;1;
73973;PMS5003;62336;-26.094;27.994;2022-11-20T08:31:25;1;1;
73973;PMS5003;62336;-26.094;27.994;2022-11-20T08:33:51;1;0;
73973;PMS5003;62336;-26.094;27.994;2022-11-20T08:36:16;1;1;
73973;PMS5003;62336;-26.094;27.994;2022-11-20T08:38:42;0;0;
73973;PMS5003;62336;-26.094;27.994;2022-11-20T08:41:07;1;1;
73973;PMS5003;62336;-26.094;27.994;2022-11-20T08:43:33;0;0;
73973;PMS5003;62336;-26.094;27.994;2022-11-20T08:45:58;1;1;
73973;PMS5003;62336;-26.094;27.994;2022-11-20T08:48:23;1;1;
73973;PMS5003;62336;-26.094;27.994;2022-11-20T08:50:48;1;1;
73973;PMS5003;62336;-26.094;27.994;2022-11-20T08:53:13;1;0;
73973;PMS5003;62336;-26.094;27.994;2022-11-20T08:55:39;1;1;
73973;PMS5003;62336;-26.094;27.994;2022-11-20T08:58:05;1;1;
73973;PMS5003;62336;-26.094;27.994;2022-11-20T09:00:30;1;1;
73973;PMS5003;62336;-26.094;27.994;2022-11-20T09:02:55;0;0;
73973;PMS5003;62336;-26.094;27.994;2022-11-20T09:05:20;1;1;
73973;PMS5003;62336;-26.094;27.994;2022-11-20T09:07:45;1;1;
73973;PMS5003;62336;-26.094;27.994;2022-11-20T09:10:10;1;1;
73973;PMS5003;62336;-26.094;27.994;2022-11-20T09:12:35;1;1;
73973;PMS5003;62336;-26.094;27.994;2022-11-20T09:15:00;0;0;
73973;PMS5003;62336;-26.094;27.994;2022-11-20T09:17:25;1;1;
73973;PMS5003;62336;-26.094;27.994;2022-11-20T09:19:50;0;0;
73973;PMS5003;62336;-26.094;27.994;2022-11-20T09:22:16;3;3;
73973;PMS5003;62336;-26.094;27.994;2022-11-20T09:24:40;1;0;
73973;PMS5003;62336;-26.094;27.994;2022-11-20T09:27:06;0;0;
73973;PMS5003;62336;-26.094;27.994;2022-11-20T09:29:32;0;0;
73973;PMS5003;62336;-26.094;27.994;2022-11-20T09:31:57;1;1;
73973;PMS5003;62336;-26.094;27.994;2022-11-20T09:34:22;1;1;
73973;PMS5003;62336;-26.094;27.994;2022-11-20T09:36:46;2;1;
73973;PMS5003;62336;-26.094;27.994;2022-11-20T09:39:12;1;1;
73973;PMS5003;62336;-26.094;27.994;2022-11-20T09:41:43;2;1;
73973;PMS5003;62336;-26.094;27.994;2022-11-20T09:44:05;0;0;
73973;PMS5003;62336;-26.094;27.994;2022-11-20T09:46:29;0;0;
73973;PMS5003;62336;-26.094;27.994;2022-11-20T09:48:58;0;0;
73973;PMS5003;62336;-26.094;27.994;2022-11-20T09:51:21;0;0;
73973;PMS5003;62336;-26.094;27.994;2022-11-20T09:53:49;1;1;
73973;PMS5003;62336;-26.094;27.994;2022-11-20T09:56:09;1;1;
73973;PMS5003;62336;-26.094;27.994;2022-11-20T09:58:35;0;0;
73973;PMS5003;62336;-26.094;27.994;2022-11-20T10:01:00;0;0;
73973;PMS5003;62336;-26.094;27.994;2022-11-20T10:03:26;2;0;
73973;PMS5003;62336;-26.094;27.994;2022-11-20T10:05:49;1;0;
73973;PMS5003;62336;-26.094;27.994;2022-11-20T10:08:15;2;2;
73973;PMS5003;62336;-26.094;27.994;2022-11-20T10:10:40;1;1;
73973;PMS5003;62336;-26.094;27.994;2022-11-20T10:13:09;1;1;
73973;PMS5003;62336;-26.094;27.994;2022-11-20T10:15:31;1;1;
73973;PMS5003;62336;-26.094;27.994;2022-11-20T10:17:58;1;1;
73973;PMS5003;62336;-26.094;27.994;2022-11-20T10:20:27;2;1;
73973;PMS5003;62336;-26.094;27.994;2022-11-20T10:22:49;0;0;
73973;PMS5003;62336;-26.094;27.994;2022-11-20T10:25:11;1;1;
73973;PMS5003;62336;-26.094;27.994;2022-11-20T10:27:44;1;1;
73973;PMS5003;62336;-26.094;27.994;2022-11-20T10:30:00;1;1;
73973;PMS5003;62336;-26.094;27.994;2022-11-20T10:32:24;1;1;
73973;PMS5003;62336;-26.094;27.994;2022-11-20T10:34:50;1;1;
73973;PMS5003;62336;-26.094;27.994;2022-11-20T10:37:16;1;1;
73973;PMS5003;62336;-26.094;27.994;2022-11-20T10:39:41;0;0;
73973;PMS5003;62336;-26.094;27.994;2022-11-20T10:42:07;1;1;
73973;PMS5003;62336;-26.094;27.994;2022-11-20T10:44:30;0;0;
73973;PMS5003;62336;-26.094;27.994;2022-11-20T10:46:55;1;1;
73973;PMS5003;62336;-26.094;27.994;2022-11-20T10:49:20;1;1;
73973;PMS5003;62336;-26.094;27.994;2022-11-20T10:51:49;1;1;
73973;PMS5003;62336;-26.094;27.994;2022-11-20T10:54:12;2;2;
73973;PMS5003;62336;-26.094;27.994;2022-11-20T10:56:35;1;1;
73973;PMS5003;62336;-26.094;27.994;2022-11-20T10:59:04;1;1;
73973;PMS5003;62336;-26.094;27.994;2022-11-20T11:01:25;3;2;
73973;PMS5003;62336;-26.094;27.994;2022-11-20T11:03:50;2;1;
73973;PMS5003;62336;-26.094;27.994;2022-11-20T11:06:17;2;2;
73973;PMS5003;62336;-26.094;27.994;2022-11-20T11:08:40;1;1;
73973;PMS5003;62336;-26.094;27.994;2022-11-20T11:11:10;1;1;
73973;PMS5003;62336;-26.094;27.994;2022-11-20T11:13:30;1;1;
73973;PMS5003;62336;-26.094;27.994;2022-11-20T11:15:55;2;2;
73973;PMS5003;62336;-26.094;27.994;2022-11-20T11:18:25;1;1;
73973;PMS5003;62336;-26.094;27.994;2022-11-20T11:20:49;2;2;
73973;PMS5003;62336;-26.094;27.994;2022-11-20T11:23:22;3;2;
73973;PMS5003;62336;-26.094;27.994;2022-11-20T11:25:36;3;3;
73973;PMS5003;62336;-26.094;27.994;2022-11-20T11:28:02;3;3;
73973;PMS5003;62336;-26.094;27.994;2022-11-20T11:30:27;2;2;
73973;PMS5003;62336;-26.094;27.994;2022-11-20T11:33:01;1;1;
73973;PMS5003;62336;-26.094;27.994;2022-11-20T11:35:21;3;3;
73973;PMS5003;62336;-26.094;27.994;2022-11-20T11:37:42;3;3;
73973;PMS5003;62336;-26.094;27.994;2022-11-20T11:40:08;2;2;
73973;PMS5003;62336;-26.094;27.994;2022-11-20T11:42:31;2;2;
73973;PMS5003;62336;-26.094;27.994;2022-11-20T11:44:57;5;5;
73973;PMS5003;62336;-26.094;27.994;2022-11-20T11:47:22;4;4;
73973;PMS5003;62336;-26.094;27.994;2022-11-20T11:49:46;3;3;
73973;PMS5003;62336;-26.094;27.994;2022-11-20T11:52:13;4;3;
73973;PMS5003;62336;-26.094;27.994;2022-11-20T11:54:38;4;4;
73973;PMS5003;62336;-26.094;27.994;2022-11-20T11:57:04;4;3;
73973;PMS5003;62336;-26.094;27.994;2022-11-20T11:59:29;2;2;
73973;PMS5003;62336;-26.094;27.994;2022-11-20T12:01:52;2;2;
73973;PMS5003;62336;-26.094;27.994;2022-11-20T12:04:19;3;2;
73973;PMS5003;62336;-26.094;27.994;2022-11-20T12:06:43;2;2;
73973;PMS5003;62336;-26.094;27.994;2022-11-20T12:09:08;4;3;
73973;PMS5003;62336;-26.094;27.994;2022-11-20T12:11:34;4;4;
73973;PMS5003;62336;-26.094;27.994;2022-11-20T12:13:58;3;3;
73973;PMS5003;62336;-26.094;27.994;2022-11-20T12:16:22;2;2;
73973;PMS5003;62336;-26.094;27.994;2022-11-20T12:18:48;4;2;
73973;PMS5003;62336;-26.094;27.994;2022-11-20T12:21:19;3;3;
73973;PMS5003;62336;-26.094;27.994;2022-11-20T12:23:41;2;2;
73973;PMS5003;62336;-26.094;27.994;2022-11-20T12:26:05;2;2;
73973;PMS5003;62336;-26.094;27.994;2022-11-20T12:28:32;4;4;
73973;PMS5003;62336;-26.094;27.994;2022-11-20T12:30:58;3;3;
73973;PMS5003;62336;-26.094;27.994;2022-11-20T12:33:24;2;2;
73973;PMS5003;62336;-26.094;27.994;2022-11-20T12:40:35;4;4;
73973;PMS5003;62336;-26.094;27.994;2022-11-20T12:43:02;4;3;
73973;PMS5003;62336;-26.094;27.994;2022-11-20T12:47:55;2;2;
73973;PMS5003;62336;-26.094;27.994;2022-11-20T12:50:16;3;3;
73973;PMS5003;62336;-26.094;27.994;2022-11-20T12:52:41;2;2;
73973;PMS5003;62336;-26.094;27.994;2022-11-20T12:55:09;1;1;
73973;PMS5003;62336;-26.094;27.994;2022-11-20T12:57:32;4;3;
73973;PMS5003;62336;-26.094;27.994;2022-11-20T13:00:02;2;2;
73973;PMS5003;62336;-26.094;27.994;2022-11-20T13:02:23;3;3;
73973;PMS5003;62336;-26.094;27.994;2022-11-20T13:04:49;2;2;
73973;PMS5003;62336;-26.094;27.994;2022-11-20T13:07:11;2;2;
73973;PMS5003;62336;-26.094;27.994;2022-11-20T13:09:39;2;2;
73973;PMS5003;62336;-26.094;27.994;2022-11-20T13:12:01;3;3;
73973;PMS5003;62336;-26.094;27.994;2022-11-20T13:14:29;2;2;
73973;PMS5003;62336;-26.094;27.994;2022-11-20T13:16:51;1;1;
73973;PMS5003;62336;-26.094;27.994;2022-11-20T13:19:15;2;2;
73973;PMS5003;62336;-26.094;27.994;2022-11-20T13:21:41;2;2;
73973;PMS5003;62336;-26.094;27.994;2022-11-20T13:24:05;2;2;
73973;PMS5003;62336;-26.094;27.994;2022-11-20T13:26:30;2;2;
73973;PMS5003;62336;-26.094;27.994;2022-11-20T13:31:29;3;2;
73973;PMS5003;62336;-26.094;27.994;2022-11-20T13:33:54;3;3;
73973;PMS5003;62336;-26.094;27.994;2022-11-20T13:41:00;3;3;
73973;PMS5003;62336;-26.094;27.994;2022-11-20T13:43:33;4;3;
73973;PMS5003;62336;-26.094;27.994;2022-11-20T13:45:57;3;2;
73973;PMS5003;62336;-26.094;27.994;2022-11-20T13:48:19;3;2;
73973;PMS5003;62336;-26.094;27.994;2022-11-20T13:50:43;2;2;
73973;PMS5003;62336;-26.094;27.994;2022-11-20T13:53:08;2;2;
73973;PMS5003;62336;-26.094;27.994;2022-11-20T13:55:33;2;2;
73973;PMS5003;62336;-26.094;27.994;2022-11-20T13:58:07;3;3;
73973;PMS5003;62336;-26.094;27.994;2022-11-20T14:00:22;1;1;
73973;PMS5003;62336;-26.094;27.994;2022-11-20T14:02:49;6;3;
73973;PMS5003;62336;-26.094;27.994;2022-11-20T14:05:19;4;4;
73973;PMS5003;62336;-26.094;27.994;2022-11-20T14:07:37;2;2;
73973;PMS5003;62336;-26.094;27.994;2022-11-20T14:10:01;3;3;
73973;PMS5003;62336;-26.094;27.994;2022-11-20T14:12:28;9;8;
73973;PMS5003;62336;-26.094;27.994;2022-11-20T14:14:53;7;7;
73973;PMS5003;62336;-26.094;27.994;2022-11-20T14:17:18;5;4;
73973;PMS5003;62336;-26.094;27.994;2022-11-20T14:19:42;4;4;
73973;PMS5003;62336;-26.094;27.994;2022-11-20T14:22:08;4;3;
73973;PMS5003;62336;-26.094;27.994;2022-11-20T14:24:32;4;3;
73973;PMS5003;62336;-26.094;27.994;2022-11-20T14:26:58;3;2;
73973;PMS5003;62336;-26.094;27.994;2022-11-20T14:29:25;4;4;
73973;PMS5003;62336;-26.094;27.994;2022-11-20T14:31:50;4;3;
73973;PMS5003;62336;-26.094;27.994;2022-11-20T14:34:15;4;3;
73973;PMS5003;62336;-26.094;27.994;2022-11-20T14:36:39;3;3;
73973;PMS5003;62336;-26.094;27.994;2022-11-20T14:39:04;4;3;
73973;PMS5003;62336;-26.094;27.994;2022-11-20T14:41:30;3;3;
73973;PMS5003;62336;-26.094;27.994;2022-11-20T14:43:55;5;4;
73973;PMS5003;62336;-26.094;27.994;2022-11-20T14:46:19;4;4;
73973;PMS5003;62336;-26.094;27.994;2022-11-20T14:48:45;7;6;
73973;PMS5003;62336;-26.094;27.994;2022-11-20T14:51:10;6;6;
73973;PMS5003;62336;-26.094;27.994;2022-11-20T14:53:34;4;4;
73973;PMS5003;62336;-26.094;27.994;2022-11-20T14:56:01;7;7;
73973;PMS5003;62336;-26.094;27.994;2022-11-20T14:58:26;4;4;
73973;PMS5003;62336;-26.094;27.994;2022-11-20T15:00:53;6;6;
73973;PMS5003;62336;-26.094;27.994;2022-11-20T15:03:16;3;3;
73973;PMS5003;62336;-26.094;27.994;2022-11-20T15:05:45;6;5;
73973;PMS5003;62336;-26.094;27.994;2022-11-20T15:08:07;4;4;
73973;PMS5003;62336;-26.094;27.994;2022-11-20T15:10:31;6;5;
73973;PMS5003;62336;-26.094;27.994;2022-11-20T15:12:58;3;3;
73973;PMS5003;62336;-26.094;27.994;2022-11-20T15:15:23;3;2;
73973;PMS5003;62336;-26.094;27.994;2022-11-20T15:17:46;4;3;
73973;PMS5003;62336;-26.094;27.994;2022-11-20T15:20:12;2;2;
73973;PMS5003;62336;-26.094;27.994;2022-11-20T15:22:36;3;3;
73973;PMS5003;62336;-26.094;27.994;2022-11-20T15:25:04;3;2;
73973;PMS5003;62336;-26.094;27.994;2022-11-20T15:27:26;5;3;
73973;PMS5003;62336;-26.094;27.994;2022-11-20T15:29:52;4;3;
73973;PMS5003;62336;-26.094;27.994;2022-11-20T15:32:17;4;3;
73973;PMS5003;62336;-26.094;27.994;2022-11-20T15:34:42;5;5;
73973;PMS5003;62336;-26.094;27.994;2022-11-20T15:37:07;5;4;
73973;PMS5003;62336;-26.094;27.994;2022-11-20T15:39:32;4;3;
73973;PMS5003;62336;-26.094;27.994;2022-11-20T15:41:57;5;5;
73973;PMS5003;62336;-26.094;27.994;2022-11-20T15:44:22;3;3;
73973;PMS5003;62336;-26.094;27.994;2022-11-20T15:46:47;5;3;
73973;PMS5003;62336;-26.094;27.994;2022-11-20T15:49:13;2;2;
73973;PMS5003;62336;-26.094;27.994;2022-11-20T15:51:38;2;2;
73973;PMS5003;62336;-26.094;27.994;2022-11-20T15:54:05;2;2;
73973;PMS5003;62336;-26.094;27.994;2022-11-20T15:56:28;2;2;
73973;PMS5003;62336;-26.094;27.994;2022-11-20T15:58:53;1;1;
73973;PMS5003;62336;-26.094;27.994;2022-11-20T16:01:19;0;0;
73973;PMS5003;62336;-26.094;27.994;2022-11-20T16:03:43;2;2;
73973;PMS5003;62336;-26.094;27.994;2022-11-20T16:06:08;3;2;
73973;PMS5003;62336;-26.094;27.994;2022-11-20T16:21:22;1;1;
73973;PMS5003;62336;-26.094;27.994;2022-11-20T16:23:45;6;6;
73973;PMS5003;62336;-26.094;27.994;2022-11-20T16:26:10;3;3;
73973;PMS5003;62336;-26.094;27.994;2022-11-20T16:28:35;4;4;
73973;PMS5003;62336;-26.094;27.994;2022-11-20T16:33:25;4;4;
73973;PMS5003;62336;-26.094;27.994;2022-11-20T16:35:50;4;4;
73973;PMS5003;62336;-26.094;27.994;2022-11-20T16:38:15;6;5;
73973;PMS5003;62336;-26.094;27.994;2022-11-20T16:40:40;4;4;
73973;PMS5003;62336;-26.094;27.994;2022-11-20T16:43:07;5;5;
73973;PMS5003;62336;-26.094;27.994;2022-11-20T16:45:30;3;3;
73973;PMS5003;62336;-26.094;27.994;2022-11-20T16:47:55;4;4;
73973;PMS5003;62336;-26.094;27.994;2022-11-20T16:50:20;4;4;
73973;PMS5003;62336;-26.094;27.994;2022-11-20T16:52:46;4;4;
73973;PMS5003;62336;-26.094;27.994;2022-11-20T16:55:11;8;8;
73973;PMS5003;62336;-26.094;27.994;2022-11-20T16:57:36;10;10;
73973;PMS5003;62336;-26.094;27.994;2022-11-20T17:00:01;13;12;
73973;PMS5003;62336;-26.094;27.994;2022-11-20T17:02:26;10;9;
73973;PMS5003;62336;-26.094;27.994;2022-11-20T17:04:51;10;9;
73973;PMS5003;62336;-26.094;27.994;2022-11-20T17:07:16;7;7;
73973;PMS5003;62336;-26.094;27.994;2022-11-20T17:09:41;6;6;
73973;PMS5003;62336;-26.094;27.994;2022-11-20T17:12:06;8;7;
73973;PMS5003;62336;-26.094;27.994;2022-11-20T17:14:31;9;7;
73973;PMS5003;62336;-26.094;27.994;2022-11-20T17:16:56;7;7;
73973;PMS5003;62336;-26.094;27.994;2022-11-20T17:19:21;8;8;
73973;PMS5003;62336;-26.094;27.994;2022-11-20T17:21:47;12;11;
73973;PMS5003;62336;-26.094;27.994;2022-11-20T17:24:12;11;10;
73973;PMS5003;62336;-26.094;27.994;2022-11-20T17:26:38;11;11;
73973;PMS5003;62336;-26.094;27.994;2022-11-20T17:29:03;12;11;
73973;PMS5003;62336;-26.094;27.994;2022-11-20T17:31:28;11;10;
73973;PMS5003;62336;-26.094;27.994;2022-11-20T17:33:53;9;9;
73973;PMS5003;62336;-26.094;27.994;2022-11-20T17:36:19;7;6;
73973;PMS5003;62336;-26.094;27.994;2022-11-20T17:38:43;9;9;
73973;PMS5003;62336;-26.094;27.994;2022-11-20T17:41:08;9;8;
73973;PMS5003;62336;-26.094;27.994;2022-11-20T17:43:33;9;9;
73973;PMS5003;62336;-26.094;27.994;2022-11-20T17:45:58;10;10;
73973;PMS5003;62336;-26.094;27.994;2022-11-20T17:48:23;10;10;
73973;PMS5003;62336;-26.094;27.994;2022-11-20T17:50:48;11;11;
73973;PMS5003;62336;-26.094;27.994;2022-11-20T17:53:13;11;11;
73973;PMS5003;62336;-26.094;27.994;2022-11-20T17:55:38;9;9;
73973;PMS5003;62336;-26.094;27.994;2022-11-20T17:58:03;12;11;
73973;PMS5003;62336;-26.094;27.994;2022-11-20T18:00:28;12;12;
73973;PMS5003;62336;-26.094;27.994;2022-11-20T18:02:54;12;12;
73973;PMS5003;62336;-26.094;27.994;2022-11-20T18:05:18;13;13;